sensor_id;sensor_type;location;lat;lon;timestamp;P1;durP1;ratioP1;P2;durP2;ratioP2
14191;SDS011;7177;48.572;7.838;2023-09-07T00:01:53;6.07;;;4.80;;
14191;SDS011;7177;48.572;7.838;2023-09-07T00:04:19;6.13;;;5.30;;
14191;SDS011;7177;48.572;7.838;2023-09-07T00:06:46;6.70;;;4.90;;
14191;SDS011;7177;48.572;7.838;2023-09-07T00:09:11;5.13;;;4.63;;
14191;SDS011;7177;48.572;7.838;2023-09-07T00:11:38;9.47;;;4.50;;
14191;SDS011;7177;48.572;7.838;2023-09-07T00:14:04;7.70;;;5.60;;
14191;SDS011;7177;48.572;7.838;2023-09-07T00:16:32;7.47;;;5.30;;
14191;SDS011;7177;48.572;7.838;2023-09-07T00:19:03;8.83;;;5.63;;
14191;SDS011;7177;48.572;7.838;2023-09-07T00:21:29;10.57;;;6.67;;
14191;SDS011;7177;48.572;7.838;2023-09-07T00:23:54;9.37;;;5.20;;
14191;SDS011;7177;48.572;7.838;2023-09-07T00:26:20;6.33;;;5.50;;
14191;SDS011;7177;48.572;7.838;2023-09-07T00:28:46;10.47;;;5.27;;
14191;SDS011;7177;48.572;7.838;2023-09-07T00:31:11;8.40;;;5.47;;
14191;SDS011;7177;48.572;7.838;2023-09-07T00:33:37;9.63;;;5.40;;
14191;SDS011;7177;48.572;7.838;2023-09-07T00:36:02;10.47;;;5.80;;
14191;SDS011;7177;48.572;7.838;2023-09-07T00:38:28;6.87;;;5.33;;
14191;SDS011;7177;48.572;7.838;2023-09-07T00:40:54;6.80;;;5.17;;
14191;SDS011;7177;48.572;7.838;2023-09-07T00:43:19;6.90;;;5.30;;
14191;SDS011;7177;48.572;7.838;2023-09-07T00:45:45;7.43;;;5.03;;
14191;SDS011;7177;48.572;7.838;2023-09-07T00:48:11;6.30;;;5.00;;
14191;SDS011;7177;48.572;7.838;2023-09-07T00:50:38;7.67;;;5.53;;
14191;SDS011;7177;48.572;7.838;2023-09-07T00:53:04;6.60;;;5.60;;
14191;SDS011;7177;48.572;7.838;2023-09-07T00:55:32;11.63;;;5.63;;
14191;SDS011;7177;48.572;7.838;2023-09-07T00:57:59;6.47;;;5.00;;
14191;SDS011;7177;48.572;7.838;2023-09-07T01:00:25;5.77;;;5.17;;
14191;SDS011;7177;48.572;7.838;2023-09-07T01:02:51;7.07;;;5.70;;
14191;SDS011;7177;48.572;7.838;2023-09-07T01:05:17;10.00;;;6.23;;
14191;SDS011;7177;48.572;7.838;2023-09-07T01:07:43;9.00;;;6.37;;
14191;SDS011;7177;48.572;7.838;2023-09-07T01:10:18;6.83;;;6.10;;
14191;SDS011;7177;48.572;7.838;2023-09-07T01:12:46;10.07;;;6.27;;
14191;SDS011;7177;48.572;7.838;2023-09-07T01:15:12;8.07;;;5.80;;
14191;SDS011;7177;48.572;7.838;2023-09-07T01:17:37;6.97;;;5.63;;
14191;SDS011;7177;48.572;7.838;2023-09-07T01:20:04;5.73;;;4.93;;
14191;SDS011;7177;48.572;7.838;2023-09-07T01:22:34;6.10;;;5.50;;
14191;SDS011;7177;48.572;7.838;2023-09-07T01:25:02;7.87;;;5.87;;
14191;SDS011;7177;48.572;7.838;2023-09-07T01:27:31;7.30;;;5.53;;
14191;SDS011;7177;48.572;7.838;2023-09-07T01:29:57;5.90;;;5.20;;
14191;SDS011;7177;48.572;7.838;2023-09-07T01:32:23;6.40;;;5.70;;
14191;SDS011;7177;48.572;7.838;2023-09-07T01:34:49;5.83;;;4.87;;
14191;SDS011;7177;48.572;7.838;2023-09-07T01:37:15;5.20;;;4.70;;
14191;SDS011;7177;48.572;7.838;2023-09-07T01:39:41;5.90;;;5.20;;
14191;SDS011;7177;48.572;7.838;2023-09-07T01:42:06;5.27;;;4.77;;
14191;SDS011;7177;48.572;7.838;2023-09-07T01:44:32;5.33;;;4.83;;
14191;SDS011;7177;48.572;7.838;2023-09-07T01:46:57;6.37;;;4.80;;
14191;SDS011;7177;48.572;7.838;2023-09-07T01:49:23;6.87;;;4.90;;
14191;SDS011;7177;48.572;7.838;2023-09-07T01:51:50;6.07;;;5.03;;
14191;SDS011;7177;48.572;7.838;2023-09-07T01:54:17;5.73;;;4.70;;
14191;SDS011;7177;48.572;7.838;2023-09-07T01:56:43;7.00;;;5.20;;
14191;SDS011;7177;48.572;7.838;2023-09-07T01:59:08;6.90;;;5.13;;
14191;SDS011;7177;48.572;7.838;2023-09-07T02:01:34;6.00;;;4.90;;
14191;SDS011;7177;48.572;7.838;2023-09-07T02:04:01;5.63;;;5.03;;
14191;SDS011;7177;48.572;7.838;2023-09-07T02:06:27;6.10;;;5.50;;
14191;SDS011;7177;48.572;7.838;2023-09-07T02:08:53;6.33;;;5.20;;
14191;SDS011;7177;48.572;7.838;2023-09-07T02:11:18;7.63;;;5.70;;
14191;SDS011;7177;48.572;7.838;2023-09-07T02:13:45;8.63;;;5.77;;
14191;SDS011;7177;48.572;7.838;2023-09-07T02:16:12;14.33;;;6.87;;
14191;SDS011;7177;48.572;7.838;2023-09-07T02:18:37;7.40;;;6.27;;
14191;SDS011;7177;48.572;7.838;2023-09-07T02:21:05;9.77;;;7.23;;
14191;SDS011;7177;48.572;7.838;2023-09-07T02:23:33;6.90;;;6.20;;
14191;SDS011;7177;48.572;7.838;2023-09-07T02:26:00;6.63;;;5.83;;
14191;SDS011;7177;48.572;7.838;2023-09-07T02:28:26;10.53;;;7.33;;
14191;SDS011;7177;48.572;7.838;2023-09-07T02:30:52;9.60;;;6.97;;
14191;SDS011;7177;48.572;7.838;2023-09-07T02:33:17;8.63;;;7.73;;
14191;SDS011;7177;48.572;7.838;2023-09-07T02:35:43;9.20;;;6.73;;
14191;SDS011;7177;48.572;7.838;2023-09-07T02:38:09;10.53;;;6.90;;
14191;SDS011;7177;48.572;7.838;2023-09-07T02:40:41;7.03;;;6.33;;
14191;SDS011;7177;48.572;7.838;2023-09-07T02:43:07;6.63;;;5.93;;
14191;SDS011;7177;48.572;7.838;2023-09-07T02:45:33;6.40;;;5.50;;
14191;SDS011;7177;48.572;7.838;2023-09-07T02:47:59;6.57;;;5.93;;
14191;SDS011;7177;48.572;7.838;2023-09-07T02:50:24;10.80;;;6.87;;
14191;SDS011;7177;48.572;7.838;2023-09-07T02:52:50;8.53;;;7.17;;
14191;SDS011;7177;48.572;7.838;2023-09-07T02:55:15;8.90;;;7.57;;
14191;SDS011;7177;48.572;7.838;2023-09-07T02:57:41;8.20;;;6.53;;
14191;SDS011;7177;48.572;7.838;2023-09-07T03:00:07;6.60;;;5.90;;
14191;SDS011;7177;48.572;7.838;2023-09-07T03:02:35;6.20;;;5.60;;
14191;SDS011;7177;48.572;7.838;2023-09-07T03:05:01;8.50;;;5.60;;
14191;SDS011;7177;48.572;7.838;2023-09-07T03:07:32;6.20;;;5.60;;
14191;SDS011;7177;48.572;7.838;2023-09-07T03:09:58;6.70;;;6.00;;
14191;SDS011;7177;48.572;7.838;2023-09-07T03:12:24;6.50;;;5.63;;
14191;SDS011;7177;48.572;7.838;2023-09-07T03:14:50;9.03;;;6.80;;
14191;SDS011;7177;48.572;7.838;2023-09-07T03:17:16;8.93;;;7.20;;
14191;SDS011;7177;48.572;7.838;2023-09-07T03:19:42;12.30;;;7.50;;
14191;SDS011;7177;48.572;7.838;2023-09-07T03:22:08;10.57;;;7.73;;
14191;SDS011;7177;48.572;7.838;2023-09-07T03:24:34;8.27;;;6.20;;
14191;SDS011;7177;48.572;7.838;2023-09-07T03:26:59;7.37;;;6.33;;
14191;SDS011;7177;48.572;7.838;2023-09-07T03:29:25;8.90;;;7.20;;
14191;SDS011;7177;48.572;7.838;2023-09-07T03:31:50;17.87;;;8.20;;
14191;SDS011;7177;48.572;7.838;2023-09-07T03:34:16;10.53;;;8.17;;
14191;SDS011;7177;48.572;7.838;2023-09-07T03:36:41;7.17;;;6.37;;
14191;SDS011;7177;48.572;7.838;2023-09-07T03:39:07;6.80;;;6.10;;
14191;SDS011;7177;48.572;7.838;2023-09-07T03:41:33;8.10;;;6.97;;
14191;SDS011;7177;48.572;7.838;2023-09-07T03:43:59;9.20;;;7.67;;
14191;SDS011;7177;48.572;7.838;2023-09-07T03:46:26;8.07;;;7.27;;
14191;SDS011;7177;48.572;7.838;2023-09-07T03:48:51;8.57;;;6.87;;
14191;SDS011;7177;48.572;7.838;2023-09-07T03:51:17;6.60;;;5.93;;
14191;SDS011;7177;48.572;7.838;2023-09-07T03:53:43;5.90;;;5.33;;
14191;SDS011;7177;48.572;7.838;2023-09-07T03:56:08;8.83;;;5.90;;
14191;SDS011;7177;48.572;7.838;2023-09-07T03:58:34;7.63;;;6.33;;
14191;SDS011;7177;48.572;7.838;2023-09-07T04:00:59;6.53;;;5.90;;
14191;SDS011;7177;48.572;7.838;2023-09-07T04:03:25;6.47;;;5.87;;
14191;SDS011;7177;48.572;7.838;2023-09-07T04:05:51;6.70;;;5.77;;
14191;SDS011;7177;48.572;7.838;2023-09-07T04:08:16;7.30;;;5.70;;
14191;SDS011;7177;48.572;7.838;2023-09-07T04:10:42;7.27;;;6.00;;
14191;SDS011;7177;48.572;7.838;2023-09-07T04:13:07;11.83;;;7.00;;
14191;SDS011;7177;48.572;7.838;2023-09-07T04:15:33;9.80;;;7.00;;
14191;SDS011;7177;48.572;7.838;2023-09-07T04:17:59;8.33;;;7.50;;
14191;SDS011;7177;48.572;7.838;2023-09-07T04:20:25;8.03;;;7.23;;
14191;SDS011;7177;48.572;7.838;2023-09-07T04:22:51;8.33;;;7.50;;
14191;SDS011;7177;48.572;7.838;2023-09-07T04:25:17;8.13;;;7.27;;
14191;SDS011;7177;48.572;7.838;2023-09-07T04:27:42;9.17;;;7.20;;
14191;SDS011;7177;48.572;7.838;2023-09-07T04:30:08;8.03;;;7.17;;
14191;SDS011;7177;48.572;7.838;2023-09-07T04:32:34;11.07;;;7.90;;
14191;SDS011;7177;48.572;7.838;2023-09-07T04:34:59;12.13;;;7.50;;
14191;SDS011;7177;48.572;7.838;2023-09-07T04:37:26;8.60;;;7.17;;
14191;SDS011;7177;48.572;7.838;2023-09-07T04:39:52;7.30;;;6.53;;
14191;SDS011;7177;48.572;7.838;2023-09-07T04:42:18;10.07;;;7.87;;
14191;SDS011;7177;48.572;7.838;2023-09-07T04:44:45;10.37;;;7.77;;
14191;SDS011;7177;48.572;7.838;2023-09-07T04:47:11;8.63;;;6.97;;
14191;SDS011;7177;48.572;7.838;2023-09-07T04:49:36;8.77;;;7.30;;
14191;SDS011;7177;48.572;7.838;2023-09-07T04:52:02;9.70;;;7.57;;
14191;SDS011;7177;48.572;7.838;2023-09-07T04:54:28;8.47;;;6.70;;
14191;SDS011;7177;48.572;7.838;2023-09-07T04:56:53;8.67;;;7.77;;
14191;SDS011;7177;48.572;7.838;2023-09-07T04:59:19;8.47;;;7.67;;
14191;SDS011;7177;48.572;7.838;2023-09-07T05:01:44;7.63;;;6.87;;
14191;SDS011;7177;48.572;7.838;2023-09-07T05:04:10;8.13;;;7.30;;
14191;SDS011;7177;48.572;7.838;2023-09-07T05:06:36;10.20;;;7.60;;
14191;SDS011;7177;48.572;7.838;2023-09-07T05:09:03;9.40;;;7.70;;
14191;SDS011;7177;48.572;7.838;2023-09-07T05:11:29;8.23;;;6.60;;
14191;SDS011;7177;48.572;7.838;2023-09-07T05:13:54;8.13;;;6.70;;
14191;SDS011;7177;48.572;7.838;2023-09-07T05:16:20;8.03;;;6.70;;
14191;SDS011;7177;48.572;7.838;2023-09-07T05:18:45;7.90;;;6.07;;
14191;SDS011;7177;48.572;7.838;2023-09-07T05:21:14;7.47;;;6.30;;
14191;SDS011;7177;48.572;7.838;2023-09-07T05:23:40;7.03;;;6.30;;
14191;SDS011;7177;48.572;7.838;2023-09-07T05:26:06;8.03;;;6.70;;
14191;SDS011;7177;48.572;7.838;2023-09-07T05:28:32;6.43;;;5.67;;
14191;SDS011;7177;48.572;7.838;2023-09-07T05:30:57;7.63;;;6.23;;
14191;SDS011;7177;48.572;7.838;2023-09-07T05:33:23;7.63;;;6.10;;
14191;SDS011;7177;48.572;7.838;2023-09-07T05:35:49;6.03;;;5.43;;
14191;SDS011;7177;48.572;7.838;2023-09-07T05:38:14;6.93;;;5.33;;
14191;SDS011;7177;48.572;7.838;2023-09-07T05:40:41;9.17;;;6.20;;
14191;SDS011;7177;48.572;7.838;2023-09-07T05:43:08;6.80;;;5.83;;
14191;SDS011;7177;48.572;7.838;2023-09-07T05:45:35;8.17;;;5.87;;
14191;SDS011;7177;48.572;7.838;2023-09-07T05:48:05;9.17;;;6.27;;
14191;SDS011;7177;48.572;7.838;2023-09-07T05:50:33;8.47;;;6.23;;
14191;SDS011;7177;48.572;7.838;2023-09-07T05:53:00;7.60;;;6.17;;
14191;SDS011;7177;48.572;7.838;2023-09-07T05:55:25;6.97;;;5.60;;
14191;SDS011;7177;48.572;7.838;2023-09-07T05:57:53;8.30;;;6.50;;
14191;SDS011;7177;48.572;7.838;2023-09-07T06:00:19;7.60;;;6.47;;
14191;SDS011;7177;48.572;7.838;2023-09-07T06:02:45;6.37;;;5.77;;
14191;SDS011;7177;48.572;7.838;2023-09-07T06:05:11;9.23;;;8.17;;
14191;SDS011;7177;48.572;7.838;2023-09-07T06:07:36;13.33;;;7.50;;
14191;SDS011;7177;48.572;7.838;2023-09-07T06:10:02;10.97;;;7.17;;
14191;SDS011;7177;48.572;7.838;2023-09-07T06:12:30;14.13;;;7.20;;
14191;SDS011;7177;48.572;7.838;2023-09-07T06:14:56;10.30;;;7.57;;
14191;SDS011;7177;48.572;7.838;2023-09-07T06:17:21;9.67;;;6.27;;
14191;SDS011;7177;48.572;7.838;2023-09-07T06:19:47;12.40;;;6.70;;
14191;SDS011;7177;48.572;7.838;2023-09-07T06:22:13;14.27;;;8.47;;
14191;SDS011;7177;48.572;7.838;2023-09-07T06:24:38;10.40;;;7.30;;
14191;SDS011;7177;48.572;7.838;2023-09-07T06:27:04;12.63;;;7.33;;
14191;SDS011;7177;48.572;7.838;2023-09-07T06:29:29;9.40;;;7.20;;
14191;SDS011;7177;48.572;7.838;2023-09-07T06:31:55;11.50;;;8.53;;
14191;SDS011;7177;48.572;7.838;2023-09-07T06:34:20;10.63;;;7.13;;
14191;SDS011;7177;48.572;7.838;2023-09-07T06:36:46;14.63;;;7.23;;
14191;SDS011;7177;48.572;7.838;2023-09-07T06:39:11;16.83;;;8.03;;
14191;SDS011;7177;48.572;7.838;2023-09-07T06:41:37;12.13;;;7.77;;
14191;SDS011;7177;48.572;7.838;2023-09-07T06:44:02;10.70;;;7.00;;
14191;SDS011;7177;48.572;7.838;2023-09-07T06:46:28;11.10;;;6.70;;
14191;SDS011;7177;48.572;7.838;2023-09-07T06:48:54;12.27;;;6.93;;
14191;SDS011;7177;48.572;7.838;2023-09-07T06:51:19;10.57;;;6.37;;
14191;SDS011;7177;48.572;7.838;2023-09-07T06:53:45;9.63;;;6.17;;
14191;SDS011;7177;48.572;7.838;2023-09-07T06:56:10;6.57;;;5.60;;
14191;SDS011;7177;48.572;7.838;2023-09-07T06:58:36;7.97;;;5.50;;
14191;SDS011;7177;48.572;7.838;2023-09-07T07:01:02;7.73;;;5.90;;
14191;SDS011;7177;48.572;7.838;2023-09-07T07:03:29;8.17;;;5.27;;
14191;SDS011;7177;48.572;7.838;2023-09-07T07:05:55;7.60;;;5.90;;
14191;SDS011;7177;48.572;7.838;2023-09-07T07:08:21;5.77;;;5.17;;
14191;SDS011;7177;48.572;7.838;2023-09-07T07:10:47;7.77;;;5.53;;
14191;SDS011;7177;48.572;7.838;2023-09-07T07:13:13;8.10;;;5.10;;
14191;SDS011;7177;48.572;7.838;2023-09-07T07:15:39;8.47;;;5.73;;
14191;SDS011;7177;48.572;7.838;2023-09-07T07:18:04;9.00;;;5.60;;
14191;SDS011;7177;48.572;7.838;2023-09-07T07:20:34;7.03;;;5.90;;
14191;SDS011;7177;48.572;7.838;2023-09-07T07:23:00;7.73;;;5.33;;
14191;SDS011;7177;48.572;7.838;2023-09-07T07:25:25;8.23;;;5.63;;
14191;SDS011;7177;48.572;7.838;2023-09-07T07:27:51;7.97;;;5.40;;
14191;SDS011;7177;48.572;7.838;2023-09-07T07:30:16;7.27;;;4.57;;
14191;SDS011;7177;48.572;7.838;2023-09-07T07:32:42;8.97;;;5.27;;
14191;SDS011;7177;48.572;7.838;2023-09-07T07:35:07;5.83;;;4.80;;
14191;SDS011;7177;48.572;7.838;2023-09-07T07:37:33;6.77;;;5.43;;
14191;SDS011;7177;48.572;7.838;2023-09-07T07:39:58;8.67;;;4.90;;
14191;SDS011;7177;48.572;7.838;2023-09-07T07:42:24;4.93;;;4.43;;
14191;SDS011;7177;48.572;7.838;2023-09-07T07:44:49;5.60;;;5.00;;
14191;SDS011;7177;48.572;7.838;2023-09-07T07:47:15;6.30;;;5.23;;
14191;SDS011;7177;48.572;7.838;2023-09-07T07:49:41;8.63;;;5.10;;
14191;SDS011;7177;48.572;7.838;2023-09-07T07:52:07;9.83;;;4.80;;
14191;SDS011;7177;48.572;7.838;2023-09-07T07:54:33;4.90;;;4.40;;
14191;SDS011;7177;48.572;7.838;2023-09-07T07:56:59;8.87;;;5.03;;
14191;SDS011;7177;48.572;7.838;2023-09-07T07:59:24;5.53;;;4.70;;
14191;SDS011;7177;48.572;7.838;2023-09-07T08:01:50;5.33;;;4.47;;
14191;SDS011;7177;48.572;7.838;2023-09-07T08:04:15;5.73;;;4.80;;
14191;SDS011;7177;48.572;7.838;2023-09-07T08:06:41;6.53;;;4.90;;
14191;SDS011;7177;48.572;7.838;2023-09-07T08:09:06;7.50;;;4.80;;
14191;SDS011;7177;48.572;7.838;2023-09-07T08:11:33;5.90;;;4.77;;
14191;SDS011;7177;48.572;7.838;2023-09-07T08:13:58;5.87;;;4.00;;
14191;SDS011;7177;48.572;7.838;2023-09-07T08:16:24;5.10;;;4.60;;
14191;SDS011;7177;48.572;7.838;2023-09-07T08:18:50;4.83;;;4.30;;
14191;SDS011;7177;48.572;7.838;2023-09-07T08:21:15;7.10;;;4.70;;
14191;SDS011;7177;48.572;7.838;2023-09-07T08:23:41;9.20;;;4.90;;
14191;SDS011;7177;48.572;7.838;2023-09-07T08:26:06;5.07;;;4.50;;
14191;SDS011;7177;48.572;7.838;2023-09-07T08:28:34;8.17;;;4.80;;
14191;SDS011;7177;48.572;7.838;2023-09-07T08:31:00;5.07;;;3.90;;
14191;SDS011;7177;48.572;7.838;2023-09-07T08:33:26;8.60;;;4.60;;
14191;SDS011;7177;48.572;7.838;2023-09-07T08:35:55;6.43;;;3.93;;
14191;SDS011;7177;48.572;7.838;2023-09-07T08:38:22;7.10;;;4.20;;
14191;SDS011;7177;48.572;7.838;2023-09-07T08:40:51;4.40;;;3.80;;
14191;SDS011;7177;48.572;7.838;2023-09-07T08:43:18;6.07;;;4.37;;
14191;SDS011;7177;48.572;7.838;2023-09-07T08:45:46;6.27;;;4.70;;
14191;SDS011;7177;48.572;7.838;2023-09-07T08:48:17;4.90;;;3.87;;
14191;SDS011;7177;48.572;7.838;2023-09-07T08:50:44;6.90;;;4.10;;
14191;SDS011;7177;48.572;7.838;2023-09-07T08:53:15;8.53;;;4.87;;
14191;SDS011;7177;48.572;7.838;2023-09-07T08:55:43;4.23;;;3.77;;
14191;SDS011;7177;48.572;7.838;2023-09-07T08:58:09;5.07;;;3.70;;
14191;SDS011;7177;48.572;7.838;2023-09-07T09:00:34;5.30;;;4.30;;
14191;SDS011;7177;48.572;7.838;2023-09-07T09:03:01;6.30;;;3.93;;
14191;SDS011;7177;48.572;7.838;2023-09-07T09:05:28;5.63;;;4.10;;
14191;SDS011;7177;48.572;7.838;2023-09-07T09:08:05;6.63;;;3.80;;
14191;SDS011;7177;48.572;7.838;2023-09-07T09:10:31;4.77;;;3.80;;
14191;SDS011;7177;48.572;7.838;2023-09-07T09:12:56;5.33;;;3.70;;
14191;SDS011;7177;48.572;7.838;2023-09-07T09:15:24;4.90;;;4.10;;
14191;SDS011;7177;48.572;7.838;2023-09-07T09:17:50;7.40;;;4.53;;
14191;SDS011;7177;48.572;7.838;2023-09-07T09:20:25;4.10;;;3.70;;
14191;SDS011;7177;48.572;7.838;2023-09-07T09:22:52;7.70;;;3.80;;
14191;SDS011;7177;48.572;7.838;2023-09-07T09:25:19;5.67;;;3.73;;
14191;SDS011;7177;48.572;7.838;2023-09-07T09:27:46;4.83;;;3.13;;
14191;SDS011;7177;48.572;7.838;2023-09-07T09:30:12;7.13;;;4.17;;
14191;SDS011;7177;48.572;7.838;2023-09-07T09:32:40;6.70;;;4.03;;
14191;SDS011;7177;48.572;7.838;2023-09-07T09:35:06;4.07;;;3.50;;
14191;SDS011;7177;48.572;7.838;2023-09-07T09:37:32;4.43;;;3.90;;
14191;SDS011;7177;48.572;7.838;2023-09-07T09:39:58;9.17;;;3.60;;
14191;SDS011;7177;48.572;7.838;2023-09-07T09:42:26;7.40;;;4.07;;
14191;SDS011;7177;48.572;7.838;2023-09-07T09:44:52;3.87;;;3.43;;
14191;SDS011;7177;48.572;7.838;2023-09-07T09:47:21;4.10;;;3.23;;
14191;SDS011;7177;48.572;7.838;2023-09-07T09:49:47;7.63;;;3.40;;
14191;SDS011;7177;48.572;7.838;2023-09-07T09:52:15;5.30;;;3.23;;
14191;SDS011;7177;48.572;7.838;2023-09-07T09:54:41;4.50;;;2.97;;
14191;SDS011;7177;48.572;7.838;2023-09-07T09:57:08;4.90;;;3.40;;
14191;SDS011;7177;48.572;7.838;2023-09-07T09:59:34;4.43;;;3.67;;
14191;SDS011;7177;48.572;7.838;2023-09-07T10:01:59;5.43;;;3.50;;
14191;SDS011;7177;48.572;7.838;2023-09-07T10:04:26;3.70;;;3.03;;
14191;SDS011;7177;48.572;7.838;2023-09-07T10:07:00;3.83;;;3.50;;
14191;SDS011;7177;48.572;7.838;2023-09-07T10:09:32;5.83;;;3.03;;
14191;SDS011;7177;48.572;7.838;2023-09-07T10:11:58;5.87;;;3.70;;
14191;SDS011;7177;48.572;7.838;2023-09-07T10:14:26;4.23;;;3.60;;
14191;SDS011;7177;48.572;7.838;2023-09-07T10:17:02;4.80;;;3.10;;
14191;SDS011;7177;48.572;7.838;2023-09-07T10:19:29;3.97;;;3.20;;
14191;SDS011;7177;48.572;7.838;2023-09-07T10:21:55;3.70;;;3.27;;
14191;SDS011;7177;48.572;7.838;2023-09-07T10:26:58;3.63;;;3.33;;
14191;SDS011;7177;48.572;7.838;2023-09-07T10:29:25;4.73;;;3.30;;
14191;SDS011;7177;48.572;7.838;2023-09-07T10:31:51;6.63;;;3.10;;
14191;SDS011;7177;48.572;7.838;2023-09-07T10:34:17;5.17;;;3.37;;
14191;SDS011;7177;48.572;7.838;2023-09-07T10:36:42;4.50;;;3.00;;
14191;SDS011;7177;48.572;7.838;2023-09-07T10:39:08;4.70;;;3.30;;
14191;SDS011;7177;48.572;7.838;2023-09-07T10:41:43;4.20;;;3.07;;
14191;SDS011;7177;48.572;7.838;2023-09-07T10:44:10;3.97;;;3.00;;
14191;SDS011;7177;48.572;7.838;2023-09-07T10:46:37;3.47;;;3.13;;
14191;SDS011;7177;48.572;7.838;2023-09-07T10:49:05;6.77;;;3.33;;
14191;SDS011;7177;48.572;7.838;2023-09-07T10:51:33;6.40;;;3.63;;
14191;SDS011;7177;48.572;7.838;2023-09-07T10:54:12;4.37;;;3.20;;
14191;SDS011;7177;48.572;7.838;2023-09-07T10:56:39;4.07;;;3.50;;
14191;SDS011;7177;48.572;7.838;2023-09-07T10:59:04;7.43;;;3.20;;
14191;SDS011;7177;48.572;7.838;2023-09-07T11:01:30;4.27;;;3.10;;
14191;SDS011;7177;48.572;7.838;2023-09-07T11:03:56;4.40;;;2.83;;
14191;SDS011;7177;48.572;7.838;2023-09-07T11:06:21;4.70;;;2.77;;
14191;SDS011;7177;48.572;7.838;2023-09-07T11:08:47;4.77;;;3.40;;
14191;SDS011;7177;48.572;7.838;2023-09-07T11:11:13;5.13;;;3.10;;
14191;SDS011;7177;48.572;7.838;2023-09-07T11:13:39;6.50;;;3.40;;
14191;SDS011;7177;48.572;7.838;2023-09-07T11:16:07;3.53;;;3.17;;
14191;SDS011;7177;48.572;7.838;2023-09-07T11:18:33;6.70;;;3.10;;
14191;SDS011;7177;48.572;7.838;2023-09-07T11:21:02;3.37;;;3.03;;
14191;SDS011;7177;48.572;7.838;2023-09-07T11:23:29;4.13;;;2.90;;
14191;SDS011;7177;48.572;7.838;2023-09-07T11:26:03;7.80;;;3.10;;
14191;SDS011;7177;48.572;7.838;2023-09-07T11:28:29;9.03;;;3.00;;
14191;SDS011;7177;48.572;7.838;2023-09-07T11:30:55;3.77;;;3.00;;
14191;SDS011;7177;48.572;7.838;2023-09-07T11:33:21;6.13;;;3.23;;
14191;SDS011;7177;48.572;7.838;2023-09-07T11:35:47;5.17;;;3.03;;
14191;SDS011;7177;48.572;7.838;2023-09-07T11:38:14;3.87;;;3.20;;
14191;SDS011;7177;48.572;7.838;2023-09-07T11:40:41;7.07;;;3.40;;
14191;SDS011;7177;48.572;7.838;2023-09-07T11:43:09;3.67;;;2.77;;
14191;SDS011;7177;48.572;7.838;2023-09-07T11:45:35;5.00;;;2.80;;
14191;SDS011;7177;48.572;7.838;2023-09-07T11:48:01;5.93;;;3.13;;
14191;SDS011;7177;48.572;7.838;2023-09-07T11:50:27;6.07;;;2.93;;
14191;SDS011;7177;48.572;7.838;2023-09-07T11:52:55;5.77;;;2.57;;
14191;SDS011;7177;48.572;7.838;2023-09-07T11:55:21;6.10;;;3.10;;
14191;SDS011;7177;48.572;7.838;2023-09-07T11:57:46;5.33;;;2.97;;
14191;SDS011;7177;48.572;7.838;2023-09-07T12:00:12;3.57;;;2.90;;
14191;SDS011;7177;48.572;7.838;2023-09-07T12:02:39;5.37;;;2.93;;
14191;SDS011;7177;48.572;7.838;2023-09-07T12:05:06;3.80;;;2.83;;
14191;SDS011;7177;48.572;7.838;2023-09-07T12:07:35;13.90;;;3.40;;
14191;SDS011;7177;48.572;7.838;2023-09-07T12:10:01;2.53;;;2.33;;
14191;SDS011;7177;48.572;7.838;2023-09-07T12:12:27;3.77;;;3.00;;
14191;SDS011;7177;48.572;7.838;2023-09-07T12:14:53;4.17;;;3.17;;
14191;SDS011;7177;48.572;7.838;2023-09-07T12:17:21;2.70;;;2.50;;
14191;SDS011;7177;48.572;7.838;2023-09-07T12:19:47;3.00;;;2.70;;
14191;SDS011;7177;48.572;7.838;2023-09-07T12:22:12;3.57;;;2.83;;
14191;SDS011;7177;48.572;7.838;2023-09-07T12:24:38;4.07;;;3.00;;
14191;SDS011;7177;48.572;7.838;2023-09-07T12:27:03;3.57;;;2.73;;
14191;SDS011;7177;48.572;7.838;2023-09-07T12:29:29;5.03;;;3.10;;
14191;SDS011;7177;48.572;7.838;2023-09-07T12:31:55;5.77;;;3.10;;
14191;SDS011;7177;48.572;7.838;2023-09-07T12:34:20;6.87;;;3.30;;
14191;SDS011;7177;48.572;7.838;2023-09-07T12:36:46;4.73;;;3.00;;
14191;SDS011;7177;48.572;7.838;2023-09-07T12:39:11;4.43;;;3.43;;
14191;SDS011;7177;48.572;7.838;2023-09-07T12:41:38;3.47;;;3.17;;
14191;SDS011;7177;48.572;7.838;2023-09-07T12:44:04;3.70;;;2.80;;
14191;SDS011;7177;48.572;7.838;2023-09-07T12:46:30;4.97;;;2.80;;
14191;SDS011;7177;48.572;7.838;2023-09-07T12:48:56;3.50;;;3.17;;
14191;SDS011;7177;48.572;7.838;2023-09-07T12:51:22;5.30;;;3.30;;
14191;SDS011;7177;48.572;7.838;2023-09-07T12:53:47;4.03;;;2.93;;
14191;SDS011;7177;48.572;7.838;2023-09-07T12:56:13;4.13;;;3.13;;
14191;SDS011;7177;48.572;7.838;2023-09-07T12:58:40;9.50;;;3.27;;
14191;SDS011;7177;48.572;7.838;2023-09-07T13:01:06;4.17;;;3.10;;
14191;SDS011;7177;48.572;7.838;2023-09-07T13:03:34;6.70;;;3.10;;
14191;SDS011;7177;48.572;7.838;2023-09-07T13:06:03;4.90;;;2.90;;
14191;SDS011;7177;48.572;7.838;2023-09-07T13:08:29;4.23;;;2.90;;
14191;SDS011;7177;48.572;7.838;2023-09-07T13:10:57;4.17;;;3.10;;
14191;SDS011;7177;48.572;7.838;2023-09-07T13:13:23;6.07;;;4.10;;
14191;SDS011;7177;48.572;7.838;2023-09-07T13:15:51;3.57;;;3.27;;
14191;SDS011;7177;48.572;7.838;2023-09-07T13:18:16;6.10;;;2.77;;
14191;SDS011;7177;48.572;7.838;2023-09-07T13:20:42;4.23;;;2.87;;
14191;SDS011;7177;48.572;7.838;2023-09-07T13:23:07;4.67;;;2.90;;
14191;SDS011;7177;48.572;7.838;2023-09-07T13:25:33;4.70;;;2.97;;
14191;SDS011;7177;48.572;7.838;2023-09-07T13:27:58;3.60;;;3.00;;
14191;SDS011;7177;48.572;7.838;2023-09-07T13:30:24;5.93;;;3.00;;
14191;SDS011;7177;48.572;7.838;2023-09-07T13:32:49;3.10;;;2.60;;
14191;SDS011;7177;48.572;7.838;2023-09-07T13:35:15;5.40;;;2.80;;
14191;SDS011;7177;48.572;7.838;2023-09-07T13:37:41;4.70;;;3.20;;
14191;SDS011;7177;48.572;7.838;2023-09-07T13:40:07;3.80;;;3.40;;
14191;SDS011;7177;48.572;7.838;2023-09-07T13:42:33;4.00;;;3.00;;
14191;SDS011;7177;48.572;7.838;2023-09-07T13:44:59;4.53;;;3.33;;
14191;SDS011;7177;48.572;7.838;2023-09-07T13:47:24;4.23;;;3.33;;
14191;SDS011;7177;48.572;7.838;2023-09-07T13:49:50;5.70;;;2.80;;
14191;SDS011;7177;48.572;7.838;2023-09-07T13:52:16;6.43;;;3.10;;
14191;SDS011;7177;48.572;7.838;2023-09-07T13:54:41;4.40;;;3.03;;
14191;SDS011;7177;48.572;7.838;2023-09-07T13:57:07;5.40;;;3.10;;
14191;SDS011;7177;48.572;7.838;2023-09-07T13:59:33;3.50;;;3.17;;
14191;SDS011;7177;48.572;7.838;2023-09-07T14:01:59;9.50;;;3.43;;
14191;SDS011;7177;48.572;7.838;2023-09-07T14:04:26;4.73;;;3.20;;
14191;SDS011;7177;48.572;7.838;2023-09-07T14:06:52;5.00;;;3.30;;
14191;SDS011;7177;48.572;7.838;2023-09-07T14:09:17;8.23;;;3.40;;
14191;SDS011;7177;48.572;7.838;2023-09-07T14:11:43;3.47;;;2.97;;
14191;SDS011;7177;48.572;7.838;2023-09-07T14:14:10;5.43;;;3.23;;
14191;SDS011;7177;48.572;7.838;2023-09-07T14:16:35;4.93;;;3.47;;
14191;SDS011;7177;48.572;7.838;2023-09-07T14:19:01;4.30;;;3.70;;
14191;SDS011;7177;48.572;7.838;2023-09-07T14:21:27;6.57;;;3.43;;
14191;SDS011;7177;48.572;7.838;2023-09-07T14:23:52;4.07;;;3.57;;
14191;SDS011;7177;48.572;7.838;2023-09-07T14:26:18;3.50;;;3.20;;
14191;SDS011;7177;48.572;7.838;2023-09-07T14:28:43;3.63;;;3.33;;
14191;SDS011;7177;48.572;7.838;2023-09-07T14:31:09;4.17;;;3.20;;
14191;SDS011;7177;48.572;7.838;2023-09-07T14:33:35;5.13;;;4.00;;
14191;SDS011;7177;48.572;7.838;2023-09-07T14:36:04;6.90;;;3.77;;
14191;SDS011;7177;48.572;7.838;2023-09-07T14:38:31;4.70;;;3.43;;
14191;SDS011;7177;48.572;7.838;2023-09-07T14:40:59;5.10;;;3.63;;
14191;SDS011;7177;48.572;7.838;2023-09-07T14:43:26;5.33;;;3.53;;
14191;SDS011;7177;48.572;7.838;2023-09-07T14:45:51;7.93;;;3.90;;
14191;SDS011;7177;48.572;7.838;2023-09-07T14:48:17;10.03;;;3.77;;
14191;SDS011;7177;48.572;7.838;2023-09-07T14:50:43;7.23;;;3.60;;
14191;SDS011;7177;48.572;7.838;2023-09-07T14:53:08;4.63;;;3.90;;
14191;SDS011;7177;48.572;7.838;2023-09-07T14:55:34;5.00;;;3.77;;
14191;SDS011;7177;48.572;7.838;2023-09-07T14:57:59;5.90;;;3.40;;